Time;durP1;ratioP1;P1;durP2;ratioP2;P2;SDS_P1;SDS_P2;PMS_P1;PMS_P2;Temp;Humidity;BMP_temperature;BMP_pressure;BME280_temperature;BME280_humidity;BME280_pressure;Samples;Min_cycle;Max_cycle;Signal;HPM_P1;HPM_P2
2022/04/03 00:02:18;;;;;;;12.15;11.05;;;-4.10;99.90;;;;;;4782827;29;20055;-74
2022/04/03 00:04:45;;;;;;;11.35;10.27;;;-4.10;99.90;;;;;;4773473;29;20054;-74
2022/04/03 00:07:11;;;;;;;11.75;10.63;;;-4.30;99.90;;;;;;4789123;29;20596;-74
2022/04/03 00:09:38;;;;;;;11.38;9.60;;;-4.40;99.90;;;;;;4768087;29;20055;-75
2022/04/03 00:12:05;;;;;;;11.50;9.70;;;-4.50;99.90;;;;;;4797060;29;20055;-74
2022/04/03 00:14:32;;;;;;;16.42;11.35;;;-4.60;99.90;;;;;;4802211;29;20058;-74
2022/04/03 00:16:59;;;;;;;10.43;9.50;;;-4.60;99.90;;;;;;4796350;29;20066;-75
2022/04/03 00:19:26;;;;;;;12.50;10.27;;;-4.50;99.90;;;;;;4772468;29;20070;-74
2022/04/03 00:21:52;;;;;;;11.63;10.50;;;-4.60;99.90;;;;;;4770658;29;20066;-74
2022/04/03 00:24:19;;;;;;;10.27;8.95;;;-4.50;99.90;;;;;;4796156;24;20055;-73
2022/04/03 00:26:46;;;;;;;9.75;8.82;;;-4.60;99.90;;;;;;4797008;29;20085;-73
2022/04/03 00:29:13;;;;;;;9.95;8.60;;;-4.80;99.90;;;;;;4804334;29;20046;-73
2022/04/03 00:31:40;;;;;;;9.52;8.57;;;-4.70;99.90;;;;;;4784594;29;20057;-74
2022/04/03 00:34:07;;;;;;;9.60;8.65;;;-4.50;99.90;;;;;;4798294;29;20183;-74
2022/04/03 00:36:34;;;;;;;17.30;8.60;;;-4.50;99.90;;;;;;4777594;29;20071;-73
2022/04/03 00:39:01;;;;;;;10.18;8.35;;;-4.70;99.90;;;;;;4775241;29;20063;-73
2022/04/03 00:41:28;;;;;;;10.10;8.60;;;-4.90;99.90;;;;;;4762041;30;20565;-73
2022/04/03 00:43:55;;;;;;;10.13;9.23;;;-4.90;99.90;;;;;;4778518;29;20669;-74
2022/04/03 00:46:21;;;;;;;12.68;9.27;;;-4.90;99.90;;;;;;4779458;30;20167;-74
2022/04/03 00:48:48;;;;;;;13.05;9.32;;;-5.00;99.90;;;;;;4763338;30;20059;-73
2022/04/03 00:51:17;;;;;;;10.52;9.63;;;-5.20;99.90;;;;;;4762695;29;20047;-74
2022/04/03 00:53:44;;;;;;;10.55;9.65;;;-5.00;99.90;;;;;;4763992;30;20574;-73
2022/04/03 00:56:11;;;;;;;10.38;9.50;;;-5.00;99.90;;;;;;4780344;29;20078;-74
2022/04/03 00:58:39;;;;;;;10.73;9.85;;;-5.10;99.90;;;;;;4779296;29;20059;-74
2022/04/03 01:01:06;;;;;;;14.48;10.70;;;-5.20;99.90;;;;;;4785459;29;20116;-73
2022/04/03 01:03:32;;;;;;;11.32;10.23;;;-5.30;99.90;;;;;;4777448;29;20063;-73
2022/04/03 01:05:59;;;;;;;12.50;10.55;;;-5.30;99.90;;;;;;4780867;29;20598;-74
2022/04/03 01:08:26;;;;;;;11.00;9.98;;;-5.30;99.90;;;;;;4797358;29;20135;-74
2022/04/03 01:10:54;;;;;;;12.02;10.20;;;-5.40;99.90;;;;;;4796734;29;20084;-72
2022/04/03 01:13:21;;;;;;;11.23;10.27;;;-5.30;99.90;;;;;;4785148;29;20097;-72
2022/04/03 01:15:59;;;;;;;13.25;10.73;;;-5.40;99.90;;;;;;4776833;29;20146;-72
2022/04/03 01:18:27;;;;;;;13.20;11.90;;;-5.60;99.90;;;;;;4779561;30;20061;-75
2022/04/03 01:20:54;;;;;;;12.02;10.85;;;-5.50;99.90;;;;;;4777992;30;20051;-72
2022/04/03 01:23:23;;;;;;;11.90;10.15;;;-5.60;99.90;;;;;;4762323;30;20538;-72
2022/04/03 01:25:49;;;;;;;10.80;9.40;;;-5.70;99.90;;;;;;4765047;29;20042;-72
2022/04/03 01:28:16;;;;;;;9.68;8.77;;;-5.80;99.90;;;;;;4780848;29;20078;-72
2022/04/03 01:30:44;;;;;;;9.93;9.13;;;-5.70;99.90;;;;;;4792149;29;20058;-72
2022/04/03 01:33:10;;;;;;;9.73;8.93;;;-5.50;99.90;;;;;;4779819;29;20059;-72
2022/04/03 01:35:37;;;;;;;10.70;10.00;;;-5.40;99.90;;;;;;4776276;29;20043;-72
2022/04/03 01:38:04;;;;;;;10.27;9.48;;;-5.30;99.90;;;;;;4777468;30;20594;-73
2022/04/03 01:40:34;;;;;;;11.45;10.07;;;-5.30;99.90;;;;;;4761897;30;20047;-73
2022/04/03 01:43:02;;;;;;;11.10;10.02;;;-5.50;99.90;;;;;;4764925;30;20097;-73
2022/04/03 01:45:29;;;;;;;15.57;11.00;;;-5.70;99.90;;;;;;4778327;30;20138;-75
2022/04/03 01:47:56;;;;;;;16.52;12.60;;;-5.80;99.90;;;;;;4779287;30;20055;-73
2022/04/03 01:50:23;;;;;;;16.67;12.32;;;-5.80;99.90;;;;;;4777978;29;20063;-73
2022/04/03 01:52:49;;;;;;;32.25;18.80;;;-5.90;99.90;;;;;;4778956;29;20523;-73
2022/04/03 01:55:16;;;;;;;26.33;15.55;;;-5.90;99.90;;;;;;4777370;29;20587;-74
2022/04/03 01:57:43;;;;;;;31.98;16.15;;;-5.90;99.90;;;;;;4771674;29;20063;-74
2022/04/03 02:00:10;;;;;;;22.65;16.20;;;-6.00;99.90;;;;;;4782383;29;20095;-74
2022/04/03 02:02:38;;;;;;;27.52;17.65;;;-6.10;99.90;;;;;;4788594;29;20621;-74
2022/04/03 02:05:06;;;;;;;24.10;17.00;;;-6.20;99.90;;;;;;4796229;29;20070;-75
2022/04/03 02:07:33;;;;;;;26.17;16.60;;;-6.20;99.90;;;;;;4795519;29;20115;-74
2022/04/03 02:10:01;;;;;;;19.73;14.50;;;-6.30;99.90;;;;;;4788360;29;20080;-74
2022/04/03 02:12:28;;;;;;;17.70;14.05;;;-6.30;99.90;;;;;;4761528;29;20155;-74
2022/04/03 02:14:55;;;;;;;14.20;12.70;;;-6.30;99.90;;;;;;4767062;30;20582;-74
2022/04/03 02:17:21;;;;;;;17.52;14.80;;;-6.30;99.90;;;;;;4785780;29;20154;-75
2022/04/03 02:19:48;;;;;;;16.95;13.68;;;-6.50;99.90;;;;;;4777393;29;20584;-74
2022/04/03 02:22:20;;;;;;;18.55;13.15;;;-6.50;99.90;;;;;;4775915;29;20685;-74
2022/04/03 02:24:47;;;;;;;16.08;13.90;;;-6.60;99.90;;;;;;4759375;30;20112;-75
2022/04/03 02:27:13;;;;;;;23.48;16.45;;;-6.60;99.90;;;;;;4787588;29;20538;-75
2022/04/03 02:29:40;;;;;;;23.55;16.40;;;-6.60;99.90;;;;;;4779481;29;20071;-72
2022/04/03 02:32:07;;;;;;;22.85;15.07;;;-6.60;99.90;;;;;;4789079;29;20599;-74
2022/04/03 02:34:34;;;;;;;19.38;13.80;;;-6.60;99.90;;;;;;4782296;29;20588;-75
2022/04/03 02:37:01;;;;;;;19.63;13.23;;;-6.60;99.90;;;;;;4777366;29;20059;-75
2022/04/03 02:39:28;;;;;;;14.10;12.75;;;-6.50;99.90;;;;;;4761115;30;20774;-75
2022/04/03 02:41:54;;;;;;;16.25;13.18;;;-6.50;99.90;;;;;;4784985;29;20067;-74
2022/04/03 02:44:21;;;;;;;14.05;12.38;;;-6.50;99.90;;;;;;4777326;29;20077;-74
2022/04/03 02:46:48;;;;;;;18.55;13.38;;;-6.60;99.90;;;;;;4776563;30;20138;-74
2022/04/03 02:49:14;;;;;;;21.52;14.45;;;-6.80;99.90;;;;;;4777131;30;20124;-75
2022/04/03 02:51:41;;;;;;;16.42;13.25;;;-6.70;99.90;;;;;;4776981;29;20109;-74
2022/04/03 02:54:08;;;;;;;13.95;12.65;;;-6.70;99.90;;;;;;4777508;30;20060;-74
2022/04/03 02:56:35;;;;;;;16.40;13.68;;;-6.80;99.90;;;;;;4784213;29;20165;-75
2022/04/03 02:59:02;;;;;;;15.00;13.18;;;-6.70;99.90;;;;;;4786421;29;20066;-75
2022/04/03 03:01:28;;;;;;;14.10;12.68;;;-6.60;99.90;;;;;;4784504;29;20059;-73
2022/04/03 03:03:55;;;;;;;14.73;13.20;;;-6.70;99.90;;;;;;4794089;29;20076;-73
2022/04/03 03:06:23;;;;;;;16.40;13.00;;;-6.70;99.90;;;;;;4784511;29;20112;-73
2022/04/03 03:08:49;;;;;;;13.30;11.73;;;-6.70;99.90;;;;;;4758561;30;20121;-74
2022/04/03 03:11:16;;;;;;;13.23;11.25;;;-6.70;99.90;;;;;;4761341;30;20194;-73
2022/04/03 03:13:43;;;;;;;14.27;11.40;;;-6.90;99.90;;;;;;4761744;30;20055;-73
2022/04/03 03:16:10;;;;;;;15.55;12.45;;;-7.00;99.90;;;;;;4766330;29;20104;-73
2022/04/03 03:18:37;;;;;;;12.73;11.50;;;-7.00;99.90;;;;;;4777577;30;20039;-73
2022/04/03 03:21:04;;;;;;;13.45;12.20;;;-7.10;99.90;;;;;;4776719;30;20044;-74
2022/04/03 03:23:31;;;;;;;12.80;11.45;;;-7.10;99.90;;;;;;4760870;30;20138;-73
2022/04/03 03:25:58;;;;;;;14.15;12.70;;;-7.20;99.90;;;;;;4766843;29;20062;-74
2022/04/03 03:28:26;;;;;;;13.45;12.27;;;-7.10;99.90;;;;;;4787575;29;20058;-74
2022/04/03 03:30:52;;;;;;;13.23;12.07;;;-7.10;99.90;;;;;;4773376;29;20054;-73
2022/04/03 03:33:19;;;;;;;14.35;12.93;;;-7.20;99.90;;;;;;4786219;29;20573;-74
2022/04/03 03:35:47;;;;;;;13.88;12.68;;;-7.30;99.90;;;;;;4794544;29;20079;-74
2022/04/03 03:38:13;;;;;;;13.32;12.32;;;-7.30;99.90;;;;;;4795051;29;20553;-73
2022/04/03 03:40:41;;;;;;;13.55;12.30;;;-7.30;99.90;;;;;;4790722;29;20058;-73
2022/04/03 03:43:09;;;;;;;14.73;12.50;;;-7.20;99.90;;;;;;4761734;30;20054;-74
2022/04/03 03:45:37;;;;;;;13.13;11.95;;;-7.10;99.90;;;;;;4774117;30;20048;-74
2022/04/03 03:48:04;;;;;;;13.00;11.65;;;-7.00;99.90;;;;;;4759636;30;20055;-74
2022/04/03 03:50:31;;;;;;;12.70;11.40;;;-7.00;99.90;;;;;;4776305;29;20507;-74
2022/04/03 03:52:58;;;;;;;12.00;10.40;;;-7.00;99.90;;;;;;4776444;29;20116;-74
2022/04/03 03:55:24;;;;;;;12.05;10.90;;;-7.00;99.90;;;;;;4778232;29;20101;-73
2022/04/03 03:57:51;;;;;;;13.15;10.98;;;-6.80;99.90;;;;;;4782852;29;20685;-74
2022/04/03 04:00:18;;;;;;;12.23;11.00;;;-6.70;99.90;;;;;;4780504;29;20082;-74
2022/04/03 04:02:45;;;;;;;12.32;11.23;;;-6.70;99.90;;;;;;4785944;29;20093;-74
2022/04/03 04:05:12;;;;;;;11.95;10.90;;;-6.40;99.90;;;;;;4794359;29;20058;-75
2022/04/03 04:07:39;;;;;;;11.35;10.15;;;-6.40;99.90;;;;;;4792021;29;20061;-74
2022/04/03 04:10:06;;;;;;;11.70;10.43;;;-6.40;99.90;;;;;;4777255;29;20067;-74
2022/04/03 04:12:35;;;;;;;13.05;10.38;;;-6.20;99.90;;;;;;4773373;30;20138;-74
2022/04/03 04:15:03;;;;;;;11.90;10.90;;;-6.20;99.90;;;;;;4766589;29;20064;-73
2022/04/03 04:17:39;;;;;;;11.55;10.40;;;-6.20;99.90;;;;;;4774127;29;20086;-74
2022/04/03 04:20:09;;;;;;;12.23;11.02;;;-6.00;99.90;;;;;;4759145;29;20086;-74
2022/04/03 04:22:36;;;;;;;11.20;10.23;;;-6.10;99.90;;;;;;4774334;29;20147;-74
2022/04/03 04:25:03;;;;;;;13.93;11.25;;;-6.10;99.90;;;;;;4775200;29;20682;-74
2022/04/03 04:27:30;;;;;;;11.55;10.50;;;-5.90;99.90;;;;;;4783444;29;20055;-74
2022/04/03 04:29:56;;;;;;;12.63;10.48;;;-5.90;99.90;;;;;;4777506;29;20082;-73
2022/04/03 04:32:24;;;;;;;10.57;9.68;;;-5.80;99.90;;;;;;4785984;29;20379;-74
2022/04/03 04:34:51;;;;;;;10.95;9.98;;;-5.90;99.90;;;;;;4773301;29;20059;-73
2022/04/03 04:37:19;;;;;;;11.07;9.32;;;-5.80;99.90;;;;;;4775082;29;20145;-73
2022/04/03 04:39:46;;;;;;;9.45;8.73;;;-5.70;99.90;;;;;;4774544;29;20130;-73
2022/04/03 04:42:13;;;;;;;10.50;9.43;;;-5.70;99.90;;;;;;4775050;29;20059;-73
2022/04/03 04:44:40;;;;;;;11.77;9.88;;;-5.70;99.90;;;;;;4775684;29;20051;-74
2022/04/03 04:47:07;;;;;;;13.90;9.70;;;-5.60;99.90;;;;;;4759603;30;20128;-75
2022/04/03 04:49:34;;;;;;;12.05;9.18;;;-5.60;99.90;;;;;;4775589;30;20238;-75
2022/04/03 04:52:01;;;;;;;10.48;9.52;;;-5.60;99.90;;;;;;4758339;29;20124;-76
2022/04/03 04:54:29;;;;;;;12.80;11.68;;;-5.50;99.90;;;;;;4773364;29;20059;-75
2022/04/03 04:56:56;;;;;;;12.23;9.90;;;-5.40;99.90;;;;;;4765703;29;20042;-75
2022/04/03 04:59:23;;;;;;;59.47;32.00;;;-5.40;99.90;;;;;;4787869;29;20086;-75
2022/04/03 05:01:50;;;;;;;15.65;10.93;;;-5.40;99.90;;;;;;4778477;29;20054;-74
2022/04/03 05:04:17;;;;;;;11.77;10.15;;;-5.40;99.90;;;;;;4775860;29;20544;-75
2022/04/03 05:06:44;;;;;;;10.18;9.18;;;-5.50;99.90;;;;;;4775189;30;20078;-74
2022/04/03 05:09:11;;;;;;;11.13;10.02;;;-5.60;99.90;;;;;;4773140;29;20495;-75
2022/04/03 05:11:38;;;;;;;11.10;9.85;;;-5.50;99.90;;;;;;4775046;29;20047;-74
2022/04/03 05:14:06;;;;;;;13.15;8.57;;;-5.40;99.90;;;;;;4776513;29;20047;-75
2022/04/03 05:16:33;;;;;;;9.48;8.32;;;-5.40;99.90;;;;;;4774847;29;20070;-75
2022/04/03 05:19:00;;;;;;;11.23;8.93;;;-5.40;99.90;;;;;;4775905;29;20055;-75
2022/04/03 05:21:26;;;;;;;9.65;8.65;;;-5.30;99.90;;;;;;4789514;29;20064;-75
2022/04/03 05:23:53;;;;;;;11.32;9.50;;;-5.20;99.90;;;;;;4788735;29;20143;-75
2022/04/03 05:26:20;;;;;;;11.85;10.52;;;-5.10;99.90;;;;;;4771214;29;20070;-75
2022/04/03 05:28:46;;;;;;;14.25;11.60;;;-4.90;99.90;;;;;;4769086;29;20500;-75
2022/04/03 05:31:13;;;;;;;12.02;10.82;;;-4.80;99.90;;;;;;4777441;30;20079;-75
2022/04/03 05:33:41;;;;;;;13.40;12.20;;;-4.80;99.90;;;;;;4778927;29;20283;-75
2022/04/03 05:36:08;;;;;;;14.43;13.00;;;-4.80;99.90;;;;;;4778706;30;20126;-75
2022/04/03 05:38:34;;;;;;;15.02;11.85;;;-4.80;99.90;;;;;;4789139;29;20229;-75
2022/04/03 05:41:01;;;;;;;13.60;12.25;;;-4.80;99.90;;;;;;4793545;29;20078;-75
2022/04/03 05:43:28;;;;;;;12.90;11.80;;;-4.70;99.90;;;;;;4784648;29;20055;-75
2022/04/03 05:45:55;;;;;;;13.73;11.75;;;-4.40;99.90;;;;;;4792842;29;20503;-75
2022/04/03 05:48:21;;;;;;;13.30;12.15;;;-4.30;99.90;;;;;;4803616;29;20528;-75
2022/04/03 05:50:50;;;;;;;14.25;13.05;;;-4.30;99.90;;;;;;4802314;29;20213;-75
2022/04/03 05:53:16;;;;;;;14.85;13.55;;;-4.20;99.90;;;;;;4805194;29;20082;-75
2022/04/03 05:55:43;;;;;;;18.10;16.40;;;-4.30;99.90;;;;;;4798159;29;20069;-75
2022/04/03 05:58:10;;;;;;;26.30;21.55;;;-4.30;99.90;;;;;;4789689;29;20109;-75
2022/04/03 06:00:36;;;;;;;29.25;26.35;;;-4.30;99.90;;;;;;4780843;29;20047;-75
2022/04/03 06:03:03;;;;;;;27.60;24.48;;;-4.20;99.90;;;;;;4776342;29;20155;-75
2022/04/03 06:05:35;;;;;;;25.05;22.45;;;-4.20;99.90;;;;;;4777027;30;20129;-76
2022/04/03 06:08:02;;;;;;;22.30;20.23;;;-4.20;99.90;;;;;;4762473;29;20086;-75
2022/04/03 06:10:30;;;;;;;25.73;23.08;;;-4.20;99.90;;;;;;4763523;30;20051;-75
2022/04/03 06:13:03;;;;;;;31.60;25.95;;;-4.20;99.90;;;;;;4775457;29;20112;-75
2022/04/03 06:15:38;;;;;;;23.20;20.98;;;-4.10;99.90;;;;;;4776249;29;20112;-75
2022/04/03 06:18:10;;;;;;;22.38;20.17;;;-4.00;99.90;;;;;;4777437;29;20055;-75
2022/04/03 06:20:37;;;;;;;22.02;19.35;;;-4.00;99.90;;;;;;4776877;29;20482;-75
2022/04/03 06:25:49;;;;;;;22.15;20.05;;;-3.90;99.90;;;;;;4794246;24;20047;-74
2022/04/03 06:28:16;;;;;;;20.30;18.40;;;-3.80;99.90;;;;;;4783290;29;20042;-73
2022/04/03 06:30:43;;;;;;;20.63;18.63;;;-3.70;99.90;;;;;;4799838;29;20055;-72
2022/04/03 06:33:11;;;;;;;20.20;18.38;;;-3.50;99.90;;;;;;4777377;29;20082;-72
2022/04/03 06:35:38;;;;;;;20.90;19.15;;;-3.20;99.90;;;;;;4774306;29;20099;-72
2022/04/03 06:38:10;;;;;;;21.67;19.63;;;-3.20;99.90;;;;;;4777058;29;20047;-73
2022/04/03 06:40:40;;;;;;;24.73;22.38;;;-3.10;99.90;;;;;;4792120;29;20094;-74
2022/04/03 06:43:07;;;;;;;24.67;22.20;;;-3.00;99.90;;;;;;4794071;29;20233;-74
2022/04/03 06:45:34;;;;;;;28.45;25.83;;;-3.00;99.90;;;;;;4793767;29;20133;-73
2022/04/03 06:48:06;;;;;;;25.33;22.88;;;-2.70;99.90;;;;;;4778274;29;20109;-73
2022/04/03 06:50:33;;;;;;;24.00;21.83;;;-2.40;99.90;;;;;;4793095;29;20119;-72
2022/04/03 06:52:59;;;;;;;24.85;22.50;;;-2.10;99.90;;;;;;4776608;29;20100;-71
2022/04/03 06:55:27;;;;;;;26.95;24.42;;;-2.00;99.90;;;;;;4776854;29;20393;-72
2022/04/03 06:57:53;;;;;;;25.00;22.70;;;-2.00;99.90;;;;;;4801303;29;20150;-72
2022/04/03 07:00:20;;;;;;;26.95;24.25;;;-2.10;99.90;;;;;;4793075;29;20914;-71
2022/04/03 07:02:48;;;;;;;28.92;26.23;;;-2.00;99.90;;;;;;4793650;29;20082;-72
2022/04/03 07:05:16;;;;;;;28.77;26.15;;;-1.80;99.90;;;;;;4793685;29;20090;-72
2022/04/03 07:07:42;;;;;;;31.10;28.05;;;-1.70;99.90;;;;;;4775114;29;20115;-72
2022/04/03 07:10:10;;;;;;;31.98;29.08;;;-1.60;99.90;;;;;;4791814;29;20141;-72
2022/04/03 07:12:37;;;;;;;29.70;26.90;;;-1.50;99.90;;;;;;4777337;29;20553;-72
2022/04/03 07:15:07;;;;;;;30.33;26.50;;;-1.40;99.90;;;;;;4764825;29;20530;-72
2022/04/03 07:17:34;;;;;;;29.88;27.13;;;-1.20;99.90;;;;;;4785375;29;20058;-71
2022/04/03 07:20:02;;;;;;;30.40;28.10;;;-0.90;99.90;;;;;;4787786;29;20046;-72
2022/04/03 07:22:29;;;;;;;30.15;27.67;;;-0.30;99.90;;;;;;4776173;29;20065;-71
2022/04/03 07:24:55;;;;;;;32.03;29.65;;;0.50;99.90;;;;;;4792981;29;20716;-73
2022/04/03 07:27:22;;;;;;;30.77;28.35;;;1.20;99.90;;;;;;4803626;29;20059;-73
2022/04/03 07:29:49;;;;;;;31.48;29.02;;;1.90;99.90;;;;;;4789197;29;20047;-73
2022/04/03 07:32:16;;;;;;;32.65;30.15;;;2.60;99.90;;;;;;4792382;29;20474;-71
2022/04/03 07:34:42;;;;;;;32.78;30.17;;;2.90;99.90;;;;;;4790769;29;20134;-72
2022/04/03 07:37:09;;;;;;;32.83;30.05;;;3.10;99.90;;;;;;4776883;29;22026;-72
2022/04/03 07:39:36;;;;;;;36.50;32.92;;;3.40;99.90;;;;;;4790133;29;20058;-72
2022/04/03 07:42:03;;;;;;;30.60;28.13;;;3.40;99.90;;;;;;4791077;29;20047;-73
2022/04/03 07:44:30;;;;;;;31.15;28.27;;;3.20;99.90;;;;;;4770075;29;20079;-73
2022/04/03 07:46:56;;;;;;;35.17;31.45;;;3.00;99.90;;;;;;4789750;29;20126;-72
2022/04/03 07:49:23;;;;;;;32.00;28.95;;;2.90;99.90;;;;;;4790810;29;20066;-72
2022/04/03 07:51:50;;;;;;;33.20;29.77;;;2.60;99.90;;;;;;4790445;29;20733;-72
2022/04/03 07:54:17;;;;;;;30.65;28.35;;;2.60;99.90;;;;;;4790645;29;20139;-73
2022/04/03 07:56:44;;;;;;;30.65;28.17;;;2.60;99.90;;;;;;4797755;29;20047;-71
2022/04/03 07:59:10;;;;;;;31.85;29.05;;;2.70;99.90;;;;;;4804101;29;20054;-71
2022/04/03 08:01:37;;;;;;;32.83;29.15;;;2.70;99.90;;;;;;4770818;30;20039;-71
2022/04/03 08:04:04;;;;;;;28.95;26.73;;;2.70;99.90;;;;;;4774228;29;20055;-71
2022/04/03 08:06:31;;;;;;;28.08;25.88;;;2.90;99.90;;;;;;4770566;29;20054;-71
2022/04/03 08:08:57;;;;;;;28.67;26.27;;;2.90;99.90;;;;;;4790386;29;20078;-73
2022/04/03 08:11:24;;;;;;;28.45;25.85;;;3.00;99.90;;;;;;4774993;29;20082;-72
2022/04/03 08:13:51;;;;;;;28.17;25.58;;;2.90;99.90;;;;;;4779595;29;20077;-72
2022/04/03 08:16:18;;;;;;;30.25;27.70;;;2.90;99.90;;;;;;4790318;29;20120;-72
2022/04/03 08:18:46;;;;;;;32.05;29.05;;;3.00;99.90;;;;;;4788670;29;20150;-72
2022/04/03 08:21:12;;;;;;;28.33;26.00;;;2.90;99.90;;;;;;4790753;29;20145;-72
2022/04/03 08:23:39;;;;;;;31.23;28.45;;;3.00;99.90;;;;;;4791889;29;20059;-72
2022/04/03 08:26:07;;;;;;;29.88;26.30;;;2.80;99.90;;;;;;4793776;29;20184;-71
2022/04/03 08:28:34;;;;;;;28.58;26.27;;;2.80;99.90;;;;;;4795744;29;20303;-73
2022/04/03 08:31:00;;;;;;;27.88;25.67;;;2.60;99.90;;;;;;4787762;29;20115;-73
2022/04/03 08:33:33;;;;;;;34.15;30.55;;;2.60;99.90;;;;;;4776576;29;20161;-72
2022/04/03 08:36:03;;;;;;;28.77;26.27;;;2.70;99.90;;;;;;4790018;29;20057;-73
2022/04/03 08:38:29;;;;;;;29.20;26.77;;;3.10;99.90;;;;;;4774049;29;20736;-72
2022/04/03 08:41:01;;;;;;;30.27;27.88;;;3.30;99.90;;;;;;4776663;29;20051;-71
2022/04/03 08:43:32;;;;;;;29.95;27.27;;;3.40;99.90;;;;;;4785321;29;20063;-73
2022/04/03 08:46:00;;;;;;;29.20;26.70;;;3.60;99.90;;;;;;4790783;29;20073;-72
2022/04/03 08:48:31;;;;;;;30.63;27.92;;;3.50;99.90;;;;;;4791385;29;20058;-72
2022/04/03 08:51:01;;;;;;;30.08;27.33;;;3.20;99.90;;;;;;4774253;29;20589;-73
2022/04/03 08:53:31;;;;;;;29.27;27.10;;;3.30;99.90;;;;;;4792059;29;20055;-72
2022/04/03 08:55:59;;;;;;;30.30;27.23;;;3.40;99.90;;;;;;4776576;29;20124;-72
2022/04/03 08:58:27;;;;;;;27.27;25.00;;;3.60;99.90;;;;;;4786172;29;20054;-73
2022/04/03 09:00:56;;;;;;;28.02;25.67;;;3.60;99.90;;;;;;4810572;29;20084;-73
2022/04/03 09:03:23;;;;;;;29.48;27.17;;;3.80;99.90;;;;;;4799617;29;20071;-73
2022/04/03 09:05:50;;;;;;;28.00;25.67;;;4.00;99.90;;;;;;4778935;29;20051;-73
2022/04/03 09:08:35;;;;;;;28.65;26.45;;;4.20;99.90;;;;;;4776384;29;20058;-74
2022/04/03 09:11:07;;;;;;;26.98;25.10;;;4.20;99.90;;;;;;4760701;30;20145;-73
2022/04/03 09:13:36;;;;;;;26.70;24.45;;;4.00;99.90;;;;;;4788987;29;20751;-73
2022/04/03 09:16:04;;;;;;;29.58;27.33;;;4.00;99.90;;;;;;4795451;29;20066;-76
2022/04/03 09:19:01;;;;;;;28.13;25.95;;;4.10;99.90;;;;;;4794781;29;20511;-76
2022/04/03 09:21:28;;;;;;;28.15;26.05;;;4.00;99.90;;;;;;4790882;29;20158;-75
2022/04/03 09:23:56;;;;;;;30.17;27.75;;;4.10;99.90;;;;;;4794597;29;20699;-75
2022/04/03 09:26:24;;;;;;;35.25;27.90;;;4.20;99.90;;;;;;4793064;29;20141;-75
2022/04/03 09:29:04;;;;;;;33.22;29.80;;;4.20;99.90;;;;;;4788241;29;20062;-76
2022/04/03 09:31:31;;;;;;;31.13;28.20;;;4.20;99.90;;;;;;4763909;29;20111;-76
2022/04/03 09:34:02;;;;;;;28.95;26.75;;;4.20;99.90;;;;;;4780271;29;20483;-76
2022/04/03 09:36:31;;;;;;;29.02;26.50;;;4.30;99.90;;;;;;4762469;29;20055;-76
2022/04/03 09:39:12;;;;;;;26.58;24.80;;;4.30;99.90;;;;;;4763607;29;20577;-76
2022/04/03 09:42:06;;;;;;;26.30;24.52;;;4.30;99.90;;;;;;4794722;29;20054;-76
2022/04/03 09:44:37;;;;;;;26.95;24.90;;;4.30;99.90;;;;;;4791835;29;20119;-78
2022/04/03 09:47:11;;;;;;;26.77;25.08;;;4.50;99.90;;;;;;4792931;29;20483;-79
2022/04/03 09:49:38;;;;;;;25.15;23.45;;;4.70;99.90;;;;;;4796944;29;20150;-79
2022/04/03 09:52:07;;;;;;;26.20;23.90;;;4.80;99.90;;;;;;4781348;29;20066;-78
2022/04/03 09:54:34;;;;;;;24.83;22.70;;;4.80;99.90;;;;;;4781750;29;20055;-79
2022/04/03 09:57:20;;;;;;;25.13;23.42;;;4.60;99.90;;;;;;4789097;29;20054;-79
2022/04/03 09:59:55;;;;;;;24.48;22.77;;;4.50;99.90;;;;;;4795723;29;20123;-83
2022/04/03 10:02:23;;;;;;;25.65;23.27;;;4.60;99.90;;;;;;4798157;29;20096;-80
2022/04/03 10:04:53;;;;;;;25.60;24.00;;;4.60;99.90;;;;;;4792666;29;20146;-80
2022/04/03 10:07:22;;;;;;;24.25;22.55;;;4.70;99.90;;;;;;4782957;29;20051;-79
2022/04/03 10:09:51;;;;;;;26.23;23.95;;;4.80;99.90;;;;;;4768538;29;20058;-79
2022/04/03 10:12:22;;;;;;;24.75;23.05;;;4.80;99.90;;;;;;4780756;29;20054;-78
2022/04/03 10:14:52;;;;;;;24.05;22.55;;;5.00;99.90;;;;;;4790518;29;20071;-80
2022/04/03 10:17:20;;;;;;;22.58;21.17;;;5.20;99.90;;;;;;4781197;29;20062;-79
2022/04/03 10:19:47;;;;;;;22.40;21.08;;;5.20;99.90;;;;;;4790211;29;20061;-79
2022/04/03 10:22:26;;;;;;;23.45;21.52;;;5.20;99.90;;;;;;4794046;29;20043;-81
2022/04/03 10:24:58;;;;;;;23.70;22.02;;;4.90;99.90;;;;;;4784234;29;20051;-81
2022/04/03 10:27:39;;;;;;;26.55;24.65;;;5.00;99.90;;;;;;4806967;29;20059;-82
2022/04/03 10:30:08;;;;;;;23.92;22.17;;;5.10;99.90;;;;;;4758423;29;20059;-81
2022/04/03 10:32:35;;;;;;;23.95;22.45;;;5.30;99.90;;;;;;4764572;29;20067;-80
2022/04/03 10:35:09;;;;;;;24.95;23.50;;;5.40;99.90;;;;;;4779317;29;20135;-79
2022/04/03 10:37:41;;;;;;;24.85;22.95;;;5.50;99.90;;;;;;4780448;29;20130;-80
2022/04/03 10:40:09;;;;;;;24.98;23.25;;;5.30;99.90;;;;;;4778377;29;20291;-80
2022/04/03 10:43:05;;;;;;;24.23;22.30;;;5.50;99.90;;;;;;4777275;29;20522;-77
2022/04/03 10:45:46;;;;;;;25.55;23.77;;;5.70;99.90;;;;;;4794163;29;20050;-77
2022/04/03 10:48:19;;;;;;;24.50;22.90;;;5.70;99.90;;;;;;4793981;29;20494;-77
2022/04/03 10:50:57;;;;;;;27.00;24.73;;;5.80;99.90;;;;;;4777883;29;20059;-78
2022/04/03 10:53:27;;;;;;;24.83;23.13;;;5.70;99.90;;;;;;4779540;29;20094;-77
2022/04/03 10:55:56;;;;;;;25.70;24.10;;;5.70;99.90;;;;;;4780378;29;20143;-76
2022/04/03 10:58:25;;;;;;;26.55;24.45;;;5.70;99.90;;;;;;4789257;29;20070;-76
2022/04/03 11:00:53;;;;;;;29.13;26.88;;;5.60;99.90;;;;;;4765124;29;20047;-76
2022/04/03 11:03:20;;;;;;;27.27;25.27;;;5.40;99.90;;;;;;4778484;29;20054;-76
2022/04/03 11:05:50;;;;;;;28.48;26.88;;;5.50;99.90;;;;;;4794586;29;20047;-74
2022/04/03 11:08:18;;;;;;;26.83;25.27;;;5.80;99.90;;;;;;4792150;29;20066;-74
2022/04/03 11:10:52;;;;;;;27.67;26.15;;;6.10;99.90;;;;;;4775475;29;20088;-75
2022/04/03 11:13:22;;;;;;;24.80;23.20;;;6.20;99.90;;;;;;4779561;29;20101;-76
2022/04/03 11:15:49;;;;;;;28.60;26.90;;;6.30;99.90;;;;;;4791028;29;20518;-75
2022/04/03 11:18:39;;;;;;;27.05;25.55;;;6.40;99.90;;;;;;4792803;29;20107;-74
2022/04/03 11:21:37;;;;;;;25.65;23.92;;;6.30;99.90;;;;;;4791141;29;20104;-72
2022/04/03 11:24:13;;;;;;;25.17;23.65;;;6.10;99.90;;;;;;4767579;29;20047;-74
2022/04/03 11:26:41;;;;;;;23.73;22.23;;;5.80;99.90;;;;;;4764856;29;20143;-72
2022/04/03 11:29:13;;;;;;;24.58;23.00;;;5.80;99.90;;;;;;4781545;29;20062;-73
2022/04/03 11:31:40;;;;;;;23.42;22.02;;;5.70;99.90;;;;;;4786091;29;20062;-72
2022/04/03 11:34:12;;;;;;;23.98;22.50;;;5.40;99.90;;;;;;4756700;29;20061;-73
2022/04/03 11:36:40;;;;;;;25.50;23.80;;;5.50;99.90;;;;;;4789090;29;20547;-73
2022/04/03 11:39:10;;;;;;;27.05;25.35;;;5.50;99.90;;;;;;4776114;29;20487;-74
2022/04/03 11:41:38;;;;;;;24.98;23.48;;;5.30;99.90;;;;;;4790694;29;20034;-72
2022/04/03 11:44:15;;;;;;;23.83;22.52;;;5.30;99.90;;;;;;4758551;29;20092;-72
2022/04/03 11:46:45;;;;;;;23.98;22.65;;;5.50;99.90;;;;;;4784831;29;20322;-72
2022/04/03 11:49:34;;;;;;;25.00;23.40;;;5.60;99.90;;;;;;4773466;29;20145;-71
2022/04/03 11:52:09;;;;;;;24.60;22.95;;;5.60;99.90;;;;;;4786198;29;20084;-71
2022/04/03 11:54:37;;;;;;;24.10;22.65;;;5.50;99.90;;;;;;4779468;29;21283;-72
2022/04/03 11:57:08;;;;;;;24.50;22.92;;;5.40;99.90;;;;;;4788644;29;20058;-70
2022/04/03 11:59:37;;;;;;;23.40;22.10;;;5.30;99.90;;;;;;4760996;29;20410;-72
2022/04/03 12:02:16;;;;;;;23.40;22.00;;;5.20;99.90;;;;;;4772812;29;20055;-72
2022/04/03 12:04:43;;;;;;;23.50;22.10;;;5.20;99.90;;;;;;4774078;29;20103;-72
2022/04/03 12:07:14;;;;;;;22.60;21.20;;;5.20;99.90;;;;;;4763113;29;20047;-72
2022/04/03 12:09:45;;;;;;;24.40;23.00;;;5.10;99.90;;;;;;4759214;29;20484;-73
2022/04/03 12:12:13;;;;;;;23.35;21.95;;;5.30;99.90;;;;;;4773788;29;20063;-73
2022/04/03 12:14:42;;;;;;;24.95;23.08;;;5.50;99.90;;;;;;4773981;29;20312;-72
2022/04/03 12:17:11;;;;;;;22.10;20.90;;;5.60;99.90;;;;;;4778396;29;20051;-72
2022/04/03 12:19:42;;;;;;;22.95;21.75;;;5.70;99.90;;;;;;4789201;29;20585;-72
2022/04/03 12:22:13;;;;;;;23.55;22.02;;;5.50;99.90;;;;;;4773873;29;20046;-73
2022/04/03 12:24:40;;;;;;;23.30;21.60;;;5.30;99.90;;;;;;4796043;24;20494;-75
2022/04/03 12:27:12;;;;;;;22.58;21.48;;;5.00;99.90;;;;;;4772791;29;20051;-74
2022/04/03 12:29:50;;;;;;;21.77;20.60;;;4.80;99.90;;;;;;4772205;29;20422;-74
2022/04/03 12:32:24;;;;;;;21.95;20.65;;;4.60;99.90;;;;;;4776476;29;20090;-74
2022/04/03 12:34:51;;;;;;;21.20;19.77;;;4.50;99.90;;;;;;4764164;29;20055;-74
2022/04/03 12:37:19;;;;;;;21.65;20.23;;;4.70;99.90;;;;;;4773553;29;20059;-74
2022/04/03 12:40:00;;;;;;;22.77;21.67;;;4.90;99.90;;;;;;4777319;29;20584;-75
2022/04/03 12:42:30;;;;;;;23.60;22.20;;;5.20;99.90;;;;;;4785897;29;20132;-75
2022/04/03 12:45:15;;;;;;;21.88;20.77;;;5.70;99.90;;;;;;4775244;29;20085;-75